createdAt,value
2022-11-23T00:00:47.040Z,2.80
2022-11-23T00:03:17.059Z,2.47
2022-11-23T00:05:44.874Z,2.05
2022-11-23T00:08:12.704Z,1.40
2022-11-23T00:10:40.599Z,3.00
2022-11-23T00:13:08.456Z,3.15
2022-11-23T00:15:36.577Z,2.22
2022-11-23T00:18:04.471Z,3.63
2022-11-23T00:20:33.644Z,2.92
2022-11-23T00:23:01.519Z,1.83
2022-11-23T00:25:29.623Z,3.28
2022-11-23T00:27:57.450Z,2.88
2022-11-23T00:30:25.356Z,2.45
2022-11-23T00:32:55.426Z,1.95
2022-11-23T00:35:24.087Z,3.42
2022-11-23T00:37:53.223Z,1.77
2022-11-23T00:40:21.056Z,2.83
2022-11-23T00:42:48.863Z,2.55
2022-11-23T00:45:16.744Z,2.17
2022-11-23T00:47:44.690Z,1.95
2022-11-23T00:50:12.503Z,3.25
2022-11-23T00:52:40.287Z,1.60
2022-11-23T00:55:10.168Z,1.27
2022-11-23T00:57:38.627Z,1.98
2022-11-23T01:00:08.545Z,1.52
2022-11-23T01:02:37.105Z,1.52
2022-11-23T01:05:05.125Z,2.47
2022-11-23T01:07:33.457Z,3.20
2022-11-23T01:10:01.316Z,1.95
2022-11-23T01:12:30.924Z,1.42
2022-11-23T01:14:58.829Z,1.00
2022-11-23T01:17:26.655Z,2.30
2022-11-23T01:19:54.434Z,1.63
2022-11-23T01:22:22.844Z,2.97
2022-11-23T01:24:50.936Z,1.63
2022-11-23T01:27:18.711Z,1.30
2022-11-23T01:29:47.885Z,2.92
2022-11-23T01:32:15.696Z,2.63
2022-11-23T01:34:43.491Z,2.00
2022-11-23T01:37:12.131Z,0.77
2022-11-23T01:39:40.191Z,1.42
2022-11-23T01:42:08.696Z,1.67
2022-11-23T01:44:38.513Z,2.95
2022-11-23T01:47:10.050Z,2.25
2022-11-23T01:49:41.819Z,1.27
2022-11-23T01:52:14.631Z,0.73
2022-11-23T01:54:47.651Z,3.20
2022-11-23T01:57:20.402Z,2.25
2022-11-23T01:59:49.002Z,1.48
2022-11-23T02:02:18.410Z,3.55
2022-11-23T02:04:51.572Z,3.63
2022-11-23T02:07:21.623Z,1.77
2022-11-23T02:09:50.296Z,1.55
2022-11-23T02:12:18.172Z,1.42
2022-11-23T02:14:46.782Z,2.35
2022-11-23T02:17:14.996Z,2.67
2022-11-23T02:19:55.431Z,2.47
2022-11-23T02:22:30.477Z,1.60
2022-11-23T02:25:01.283Z,1.40
2022-11-23T02:27:30.985Z,2.03
2022-11-23T02:30:01.321Z,2.00
2022-11-23T02:32:30.620Z,2.65
2022-11-23T02:34:58.408Z,1.75
2022-11-23T02:37:26.641Z,1.73
2022-11-23T02:39:57.469Z,1.45
2022-11-23T02:42:26.760Z,1.27
2022-11-23T02:45:06.528Z,1.80
2022-11-23T02:47:34.381Z,0.82
2022-11-23T02:50:02.281Z,2.17
2022-11-23T02:52:30.110Z,3.53
2022-11-23T02:54:58.372Z,1.95
2022-11-23T02:57:26.207Z,2.15
2022-11-23T02:59:53.974Z,2.45
2022-11-23T03:02:23.204Z,2.03
2022-11-23T03:04:51.010Z,2.47
2022-11-23T03:07:21.295Z,1.52
2022-11-23T03:09:50.360Z,1.58
2022-11-23T03:12:19.776Z,1.83
2022-11-23T03:14:48.339Z,4.35
2022-11-23T03:17:18.202Z,3.28
2022-11-23T03:19:48.294Z,1.85
2022-11-23T03:22:16.161Z,1.85
2022-11-23T03:24:44.003Z,3.53
2022-11-23T03:27:16.682Z,1.95
2022-11-23T03:29:45.225Z,4.07
2022-11-23T03:34:50.490Z,1.98
2022-11-23T03:37:20.526Z,2.50
2022-11-23T03:39:51.244Z,2.53
2022-11-23T03:42:41.478Z,2.25
2022-11-23T03:45:10.653Z,2.53
2022-11-23T03:47:38.622Z,3.45
2022-11-23T03:50:09.368Z,2.85
2022-11-23T03:52:38.319Z,1.88
2022-11-23T03:55:07.067Z,2.35
2022-11-23T03:57:35.371Z,4.93
2022-11-23T04:00:05.441Z,3.33
2022-11-23T04:02:41.068Z,3.97
2022-11-23T04:05:28.157Z,2.55
2022-11-23T04:08:22.081Z,3.72
2022-11-23T04:10:50.555Z,1.90
2022-11-23T04:13:23.405Z,2.78
2022-11-23T04:15:51.306Z,3.80
2022-11-23T04:18:19.266Z,3.63
2022-11-23T04:20:48.622Z,2.78
2022-11-23T04:23:17.381Z,3.60
2022-11-23T04:25:46.397Z,3.53
2022-11-23T04:28:15.023Z,4.00
2022-11-23T04:30:45.069Z,2.22
2022-11-23T04:33:13.738Z,2.92
2022-11-23T04:35:41.578Z,3.60
2022-11-23T04:38:10.932Z,3.33
2022-11-23T04:40:39.032Z,3.47
2022-11-23T04:43:09.835Z,6.35
2022-11-23T04:45:40.336Z,3.30
2022-11-23T04:48:13.779Z,3.25
2022-11-23T04:50:46.625Z,2.75
2022-11-23T04:53:21.052Z,2.20
2022-11-23T04:55:48.948Z,3.80
2022-11-23T04:58:18.062Z,3.42
2022-11-23T05:00:51.734Z,3.78
2022-11-23T05:03:19.965Z,3.58
2022-11-23T05:05:47.723Z,3.75
2022-11-23T05:08:15.573Z,3.28
2022-11-23T05:11:07.036Z,3.25
2022-11-23T05:13:34.912Z,3.08
2022-11-23T05:16:04.256Z,3.78
2022-11-23T05:18:32.172Z,1.88
2022-11-23T05:21:00.045Z,3.47
2022-11-23T05:23:28.126Z,3.42
2022-11-23T05:25:56.332Z,3.53
2022-11-23T05:28:41.754Z,2.70
2022-11-23T05:31:13.764Z,3.00
2022-11-23T05:33:43.593Z,2.90
2022-11-23T05:36:13.724Z,2.90
2022-11-23T05:38:42.712Z,2.80
2022-11-23T05:41:15.899Z,3.17
2022-11-23T05:43:46.467Z,2.30
2022-11-23T05:46:20.167Z,4.20
2022-11-23T05:48:48.341Z,3.47
2022-11-23T05:51:16.093Z,3.78
2022-11-23T05:53:45.926Z,2.75
2022-11-23T05:56:37.372Z,2.78
2022-11-23T05:59:17.440Z,4.32
2022-11-23T06:01:50.089Z,3.30
2022-11-23T06:04:25.200Z,3.53
2022-11-23T06:06:54.445Z,2.00
2022-11-23T06:09:22.251Z,3.35
2022-11-23T06:11:52.914Z,4.15
2022-11-23T06:14:23.027Z,3.92
2022-11-23T06:16:52.041Z,3.58
2022-11-23T06:19:40.106Z,4.57
2022-11-23T06:22:08.330Z,3.90
2022-11-23T06:24:43.374Z,5.43
2022-11-23T06:27:37.425Z,3.13
2022-11-23T06:30:15.808Z,7.40
2022-11-23T06:32:44.190Z,3.58
2022-11-23T06:35:11.995Z,4.35
2022-11-23T06:37:42.046Z,2.92
2022-11-23T06:40:11.428Z,3.80
2022-11-23T06:42:40.952Z,4.85
2022-11-23T06:45:32.722Z,4.20
2022-11-23T06:48:05.318Z,3.60
2022-11-23T06:50:40.176Z,4.43
2022-11-23T06:53:08.324Z,3.60
2022-11-23T06:55:43.627Z,4.57
2022-11-23T06:58:13.311Z,4.80
2022-11-23T07:00:42.712Z,4.22
2022-11-23T07:03:19.418Z,4.20
2022-11-23T07:05:48.206Z,3.85
2022-11-23T07:08:16.155Z,2.80
2022-11-23T07:10:43.987Z,3.60
2022-11-23T07:13:15.699Z,2.95
2022-11-23T07:15:44.989Z,4.07
2022-11-23T07:18:13.229Z,5.18
2022-11-23T07:20:47.908Z,2.97
2022-11-23T07:23:15.773Z,2.03
2022-11-23T07:25:43.774Z,2.85
2022-11-23T07:28:13.635Z,4.00
2022-11-23T07:30:41.577Z,3.63
2022-11-23T07:33:13.319Z,1.95
2022-11-23T07:35:42.601Z,3.83
2022-11-23T07:38:10.338Z,2.38
2022-11-23T07:40:39.558Z,3.45
2022-11-23T07:43:13.764Z,3.13
2022-11-23T07:45:41.693Z,4.47
2022-11-23T07:48:16.595Z,2.50
2022-11-23T07:50:47.932Z,4.60
2022-11-23T07:53:17.665Z,4.53
2022-11-23T07:55:45.517Z,3.75
2022-11-23T07:58:13.858Z,2.50
2022-11-23T08:00:41.866Z,3.97
2022-11-23T08:03:29.861Z,4.22
2022-11-23T08:05:59.655Z,3.45
2022-11-23T08:08:27.572Z,4.82
2022-11-23T08:10:55.405Z,3.13
2022-11-23T08:13:23.798Z,3.90
2022-11-23T08:15:55.479Z,4.63
2022-11-23T08:18:24.588Z,4.93
2022-11-23T08:20:52.603Z,4.05
2022-11-23T08:23:22.411Z,4.20
2022-11-23T08:25:50.204Z,3.97
2022-11-23T08:28:18.688Z,4.55
2022-11-23T08:30:46.976Z,3.53
2022-11-23T08:33:15.428Z,5.97
2022-11-23T08:35:43.854Z,4.60
2022-11-23T08:38:12.168Z,5.45
2022-11-23T08:40:41.471Z,5.30
2022-11-23T08:43:09.421Z,4.72
2022-11-23T08:45:37.395Z,4.78
2022-11-23T08:48:06.097Z,4.45
2022-11-23T08:50:35.755Z,3.42
2022-11-23T08:53:03.566Z,3.88
2022-11-23T08:55:31.344Z,4.47
2022-11-23T08:58:04.065Z,4.72
2022-11-23T09:00:34.026Z,5.40
2022-11-23T09:03:02.315Z,4.38
2022-11-23T09:05:31.342Z,3.55
2022-11-23T09:08:01.801Z,6.53
2022-11-23T09:10:29.784Z,4.55
2022-11-23T09:12:57.805Z,3.45
2022-11-23T09:15:27.307Z,4.57
2022-11-23T09:17:55.261Z,4.63
2022-11-23T09:20:23.165Z,5.75
2022-11-23T09:22:56.605Z,4.88
2022-11-23T09:25:25.287Z,4.70
2022-11-23T09:27:59.491Z,5.65
2022-11-23T09:30:29.131Z,5.05
2022-11-23T09:32:59.960Z,4.15
2022-11-23T09:35:27.915Z,4.78
2022-11-23T09:37:57.453Z,6.22
2022-11-23T09:40:26.834Z,3.60
2022-11-23T09:43:32.525Z,4.35
2022-11-23T09:46:10.898Z,4.88
2022-11-23T09:49:01.239Z,4.75
2022-11-23T09:51:32.119Z,3.97
2022-11-23T09:54:05.177Z,3.80
2022-11-23T09:56:35.703Z,4.43
2022-11-23T09:59:11.649Z,4.15
2022-11-23T10:01:44.758Z,4.32
2022-11-23T10:04:18.672Z,5.55
2022-11-23T10:06:53.471Z,5.90
2022-11-23T10:09:33.337Z,4.30
2022-11-23T10:12:23.366Z,6.28
2022-11-23T10:15:10.847Z,5.45
2022-11-23T10:17:59.269Z,4.97
2022-11-23T10:20:55.551Z,4.20
2022-11-23T10:23:37.481Z,5.70
2022-11-23T10:26:05.522Z,5.22
2022-11-23T10:28:36.346Z,4.00
2022-11-23T10:31:13.854Z,7.00
2022-11-23T10:33:50.660Z,3.30
2022-11-23T10:36:18.533Z,4.47
2022-11-23T10:38:50.621Z,4.03
2022-11-23T10:41:18.835Z,4.50
2022-11-23T10:43:54.894Z,5.00
2022-11-23T10:46:41.419Z,4.57
2022-11-23T10:49:17.395Z,5.30
2022-11-23T10:51:57.137Z,4.10
2022-11-23T10:54:29.055Z,5.40
2022-11-23T10:56:58.309Z,4.47
2022-11-23T10:59:35.116Z,3.72
2022-11-23T11:02:15.049Z,3.83
2022-11-23T11:04:44.851Z,5.45
2022-11-23T11:07:23.749Z,4.22
2022-11-23T11:09:56.758Z,2.97
2022-11-23T11:12:25.600Z,5.22
2022-11-23T11:15:05.202Z,5.15
2022-11-23T11:17:39.401Z,3.42
2022-11-23T11:23:02.998Z,4.63
2022-11-23T11:25:35.750Z,3.50
2022-11-23T11:28:05.513Z,4.07
2022-11-23T11:30:46.622Z,4.15
2022-11-23T11:33:21.005Z,3.28
2022-11-23T11:35:52.996Z,3.50
2022-11-23T11:38:27.852Z,3.60
2022-11-23T11:40:58.727Z,3.17
2022-11-23T11:43:39.097Z,2.63
2022-11-23T11:46:30.168Z,4.63
2022-11-23T11:49:01.107Z,2.40
2022-11-23T11:51:33.412Z,2.88
2022-11-23T11:54:07.553Z,3.42
2022-11-23T11:56:39.088Z,2.28
2022-11-23T11:59:15.974Z,3.28
2022-11-23T12:01:52.502Z,4.22
2022-11-23T12:04:29.053Z,3.45
2022-11-23T12:07:06.288Z,2.65
2022-11-23T12:09:44.775Z,3.35
2022-11-23T12:12:16.674Z,3.75
2022-11-23T12:14:46.762Z,2.78
2022-11-23T12:17:34.601Z,4.20
2022-11-23T12:20:12.622Z,4.47
2022-11-23T12:22:53.132Z,3.88
2022-11-23T12:25:30.794Z,6.20
2022-11-23T12:28:10.851Z,5.13
2022-11-23T12:30:48.906Z,5.68
2022-11-23T12:33:40.288Z,4.38
2022-11-23T12:36:27.091Z,4.25
2022-11-23T12:38:57.096Z,4.78
2022-11-23T12:41:38.340Z,4.50
2022-11-23T12:44:38.824Z,4.82
2022-11-23T12:47:17.951Z,3.35
2022-11-23T12:49:52.130Z,2.83
2022-11-23T12:52:36.481Z,3.28
2022-11-23T12:55:20.306Z,6.40
2022-11-23T12:57:57.361Z,3.67
2022-11-23T13:00:28.288Z,3.28
2022-11-23T13:03:29.737Z,4.38
2022-11-23T13:06:22.144Z,3.22
2022-11-23T13:09:04.558Z,2.60
2022-11-23T13:11:46.153Z,2.33
2022-11-23T13:14:25.739Z,3.22
2022-11-23T13:17:18.430Z,4.45
2022-11-23T13:20:13.932Z,3.78
2022-11-23T13:22:45.984Z,2.50
2022-11-23T13:25:32.480Z,2.33
2022-11-23T13:28:05.580Z,2.50
2022-11-23T13:31:07.323Z,3.92
2022-11-23T13:33:37.645Z,2.78
2022-11-23T13:36:13.892Z,2.80
2022-11-23T13:38:46.509Z,2.50
2022-11-23T13:41:57.109Z,3.75
2022-11-23T13:44:27.846Z,2.92
2022-11-23T13:47:06.725Z,4.55
2022-11-23T13:49:42.897Z,3.22
2022-11-23T13:52:32.756Z,4.75
2022-11-23T13:55:09.861Z,4.13
2022-11-23T13:57:39.426Z,3.55
2022-11-23T14:00:47.373Z,2.50
2022-11-23T14:03:48.996Z,4.32
2022-11-23T14:06:24.682Z,3.08
2022-11-23T14:08:59.580Z,2.65
2022-11-23T14:11:28.895Z,2.25
2022-11-23T14:14:02.075Z,3.22
2022-11-23T14:16:50.987Z,3.78
2022-11-23T14:19:24.398Z,2.47
2022-11-23T14:22:04.606Z,5.25
2022-11-23T14:25:00.526Z,4.13
2022-11-23T14:27:47.904Z,3.20
2022-11-23T14:30:24.907Z,3.45
2022-11-23T14:33:04.474Z,2.38
2022-11-23T14:35:45.843Z,3.28
2022-11-23T14:38:55.596Z,3.28
2022-11-23T14:41:25.674Z,4.18
2022-11-23T14:43:55.272Z,3.60
2022-11-23T14:46:25.662Z,3.92
2022-11-23T14:49:03.497Z,3.30
2022-11-23T14:51:34.023Z,3.70
2022-11-23T14:54:09.268Z,3.80
2022-11-23T14:56:40.281Z,4.18
2022-11-23T14:59:11.287Z,3.90
2022-11-23T15:01:42.124Z,3.20
2022-11-23T15:04:22.347Z,3.42
2022-11-23T15:06:56.911Z,4.50
2022-11-23T15:09:38.064Z,3.80
2022-11-23T15:12:20.679Z,2.72
2022-11-23T15:14:48.896Z,4.60
2022-11-23T15:17:19.173Z,4.15
2022-11-23T15:19:55.532Z,4.35
2022-11-23T15:22:25.617Z,3.20
2022-11-23T15:24:53.701Z,2.97
2022-11-23T15:27:28.258Z,4.15
2022-11-23T15:29:58.067Z,5.15
2022-11-23T15:32:33.211Z,4.85
2022-11-23T15:35:06.804Z,4.90
2022-11-23T15:37:42.226Z,3.00
2022-11-23T15:40:13.954Z,3.78
2022-11-23T15:42:43.003Z,2.97
2022-11-23T15:45:36.338Z,4.10
2022-11-23T15:50:34.412Z,6.68
2022-11-23T15:53:03.980Z,3.90
2022-11-23T15:55:31.985Z,4.20
2022-11-23T15:58:02.597Z,4.53
2022-11-23T16:00:31.253Z,3.58
2022-11-23T16:03:31.714Z,4.65
2022-11-23T16:06:36.810Z,6.03
2022-11-23T16:09:53.299Z,2.47
2022-11-23T16:12:28.770Z,4.15
2022-11-23T16:14:58.396Z,3.67
2022-11-23T16:17:27.537Z,3.15
2022-11-23T16:19:57.165Z,3.97
2022-11-23T16:22:30.357Z,4.68
2022-11-23T16:25:08.028Z,4.80
2022-11-23T16:27:37.259Z,4.03
2022-11-23T16:30:05.992Z,4.30
2022-11-23T16:32:33.813Z,4.90
2022-11-23T16:35:18.384Z,5.00
2022-11-23T16:37:47.044Z,4.63
2022-11-23T16:40:16.799Z,15.38
2022-11-23T16:42:44.936Z,12.20
2022-11-23T16:45:12.797Z,17.85
2022-11-23T16:47:53.070Z,10.25
2022-11-23T16:50:21.277Z,15.52
2022-11-23T16:52:49.080Z,12.02
2022-11-23T16:55:18.453Z,8.15
2022-11-23T16:57:47.051Z,8.77
2022-11-23T17:00:19.010Z,5.03
2022-11-23T17:02:46.914Z,4.10
2022-11-23T17:05:16.461Z,4.75
2022-11-23T17:07:44.445Z,4.22
2022-11-23T17:10:13.040Z,4.45
2022-11-23T17:12:48.537Z,3.90
2022-11-23T17:15:24.446Z,5.75
2022-11-23T17:17:52.469Z,6.05
2022-11-23T17:20:20.560Z,4.10
2022-11-23T17:22:51.519Z,4.82
2022-11-23T17:25:20.218Z,4.35
2022-11-23T17:27:49.434Z,5.20
2022-11-23T17:30:20.712Z,3.67
2022-11-23T17:32:49.083Z,4.10
2022-11-23T17:35:17.589Z,4.35
2022-11-23T17:37:46.448Z,4.15
2022-11-23T17:40:16.294Z,4.60
2022-11-23T17:42:44.328Z,3.70
2022-11-23T17:45:14.604Z,4.13
2022-11-23T17:47:44.793Z,3.90
2022-11-23T17:50:17.506Z,4.05
2022-11-23T17:52:45.515Z,2.65
2022-11-23T17:55:14.053Z,3.95
2022-11-23T17:57:42.408Z,2.85
2022-11-23T18:00:18.358Z,2.78
2022-11-23T18:02:46.341Z,4.05
2022-11-23T18:05:20.857Z,3.83
2022-11-23T18:07:49.724Z,2.25
2022-11-23T18:10:18.140Z,3.65
2022-11-23T18:12:46.181Z,2.50
2022-11-23T18:15:15.857Z,2.67
2022-11-23T18:17:44.212Z,2.83
2022-11-23T18:20:13.317Z,3.08
2022-11-23T18:22:41.199Z,3.13
2022-11-23T18:25:09.873Z,2.90
2022-11-23T18:27:37.728Z,1.95
2022-11-23T18:30:06.689Z,4.43
2022-11-23T18:32:36.017Z,4.03
2022-11-23T18:35:05.090Z,3.63
2022-11-23T18:37:33.017Z,6.53
2022-11-23T18:40:00.817Z,4.55
2022-11-23T18:42:28.637Z,4.07
2022-11-23T18:44:56.785Z,3.72
2022-11-23T18:47:25.032Z,3.17
2022-11-23T18:49:58.802Z,3.78
2022-11-23T18:52:29.855Z,3.63
2022-11-23T18:54:59.640Z,4.35
2022-11-23T18:57:27.539Z,5.35
2022-11-23T18:59:58.272Z,5.57
2022-11-23T19:02:26.771Z,4.13
2022-11-23T19:04:55.974Z,11.25
2022-11-23T19:07:27.112Z,9.93
2022-11-23T19:09:55.397Z,5.40
2022-11-23T19:12:23.308Z,5.22
2022-11-23T19:14:51.139Z,4.45
2022-11-23T19:17:19.110Z,4.47
2022-11-23T19:19:46.946Z,4.30
2022-11-23T19:22:19.040Z,4.07
2022-11-23T19:24:46.877Z,4.13
2022-11-23T19:27:14.617Z,4.40
2022-11-23T19:29:42.542Z,4.53
2022-11-23T19:32:10.494Z,4.72
2022-11-23T19:34:38.365Z,4.78
2022-11-23T19:37:06.205Z,3.50
2022-11-23T19:39:36.294Z,4.35
2022-11-23T19:42:06.985Z,3.92
2022-11-23T19:44:35.059Z,5.55
2022-11-23T19:47:05.167Z,4.20
2022-11-23T19:49:35.357Z,5.53
2022-11-23T19:52:05.157Z,4.47
2022-11-23T19:54:33.204Z,4.78
2022-11-23T19:57:02.426Z,6.50
2022-11-23T19:59:30.497Z,5.10
2022-11-23T20:01:58.420Z,4.57
2022-11-23T20:04:26.318Z,3.53
2022-11-23T20:06:54.113Z,3.75
2022-11-23T20:09:22.635Z,4.90
2022-11-23T20:11:51.577Z,3.80
2022-11-23T20:14:21.314Z,4.43
2022-11-23T20:16:49.365Z,3.97
2022-11-23T20:19:17.193Z,6.20
2022-11-23T20:21:45.043Z,4.13
2022-11-23T20:24:14.547Z,4.53
2022-11-23T20:26:43.254Z,4.70
2022-11-23T20:29:11.671Z,4.25
2022-11-23T20:31:41.039Z,4.22
2022-11-23T20:34:13.127Z,3.35
2022-11-23T20:36:43.600Z,4.55
2022-11-23T20:39:12.465Z,3.50
2022-11-23T20:41:40.613Z,5.72
2022-11-23T20:44:12.134Z,4.13
2022-11-23T20:49:31.029Z,5.95
2022-11-23T20:51:58.904Z,4.88
2022-11-23T20:54:26.997Z,4.38
2022-11-23T20:56:54.906Z,5.60
2022-11-23T20:59:23.848Z,6.13
2022-11-23T21:01:53.283Z,4.70
2022-11-23T21:04:21.236Z,3.47
2022-11-23T21:06:49.020Z,4.28
2022-11-23T21:09:17.258Z,4.82
2022-11-23T21:12:02.872Z,5.40
2022-11-23T21:14:32.914Z,4.38
2022-11-23T21:17:02.677Z,5.40
2022-11-23T21:19:32.015Z,4.80
2022-11-23T21:22:03.422Z,5.65
2022-11-23T21:24:31.630Z,5.43
2022-11-23T21:26:59.870Z,4.15
2022-11-23T21:29:28.320Z,5.20
2022-11-23T21:31:56.093Z,5.95
2022-11-23T21:34:27.411Z,5.18
2022-11-23T21:36:57.083Z,4.68
2022-11-23T21:39:25.173Z,6.63
2022-11-23T21:41:54.543Z,6.57
2022-11-23T21:44:23.140Z,5.43
2022-11-23T21:46:51.601Z,5.32
2022-11-23T21:49:19.527Z,7.00
2022-11-23T21:51:49.463Z,5.95
2022-11-23T21:54:17.330Z,7.75
2022-11-23T21:56:46.817Z,6.80
2022-11-23T21:59:15.143Z,6.03
2022-11-23T22:01:43.221Z,6.70
2022-11-23T22:04:13.140Z,6.25
2022-11-23T22:06:42.049Z,5.18
2022-11-23T22:09:12.272Z,6.32
2022-11-23T22:11:41.804Z,5.82
2022-11-23T22:14:12.718Z,5.10
2022-11-23T22:16:42.619Z,5.55
2022-11-23T22:19:12.232Z,4.53
2022-11-23T22:21:41.512Z,5.05
2022-11-23T22:24:13.518Z,5.65
2022-11-23T22:26:41.449Z,6.17
2022-11-23T22:29:09.649Z,6.40
2022-11-23T22:31:38.171Z,8.38
2022-11-23T22:34:07.363Z,7.43
2022-11-23T22:36:35.397Z,5.93
2022-11-23T22:39:05.954Z,8.40
2022-11-23T22:41:37.036Z,5.85
2022-11-23T22:44:06.786Z,7.03
2022-11-23T22:46:34.824Z,6.20
2022-11-23T22:49:03.029Z,5.70
2022-11-23T22:51:30.902Z,6.10
2022-11-23T22:54:00.149Z,5.95
2022-11-23T22:56:29.463Z,6.32
2022-11-23T22:58:58.900Z,4.97
2022-11-23T23:01:28.507Z,5.97
2022-11-23T23:03:57.749Z,5.97
2022-11-23T23:06:27.643Z,5.40
2022-11-23T23:08:57.958Z,6.25
2022-11-23T23:11:26.844Z,7.15
2022-11-23T23:13:55.111Z,7.85
2022-11-23T23:16:24.958Z,8.52
2022-11-23T23:18:53.122Z,5.82
2022-11-23T23:21:22.256Z,8.05
2022-11-23T23:23:51.362Z,6.30
2022-11-23T23:26:21.643Z,7.30
2022-11-23T23:28:50.900Z,6.32
2022-11-23T23:31:18.861Z,6.45
2022-11-23T23:33:48.161Z,9.55
2022-11-23T23:36:16.853Z,6.90
2022-11-23T23:38:44.944Z,5.80
2022-11-23T23:41:13.776Z,5.95
2022-11-23T23:43:41.956Z,5.93
2022-11-23T23:46:11.342Z,6.55
2022-11-23T23:48:40.327Z,6.30
2022-11-23T23:51:11.039Z,7.00
2022-11-23T23:53:39.804Z,5.80
2022-11-23T23:56:11.398Z,6.10
2022-11-23T23:58:39.277Z,7.00
